sensor_id;sensor_type;location;lat;lon;timestamp;temperature;humidity
8872;DHT22;4472;52.092;9.820;2023-08-07T00:02:23;15.80;99.90
8872;DHT22;4472;52.092;9.820;2023-08-07T00:05:12;15.80;99.90
8872;DHT22;4472;52.092;9.820;2023-08-07T00:07:59;15.80;99.90
8872;DHT22;4472;52.092;9.820;2023-08-07T00:10:46;15.70;99.90
8872;DHT22;4472;52.092;9.820;2023-08-07T00:13:34;15.80;99.90
8872;DHT22;4472;52.092;9.820;2023-08-07T00:16:21;15.80;99.90
8872;DHT22;4472;52.092;9.820;2023-08-07T00:21:57;15.70;99.90
8872;DHT22;4472;52.092;9.820;2023-08-07T00:24:44;15.70;99.90
8872;DHT22;4472;52.092;9.820;2023-08-07T00:27:31;15.70;99.90
8872;DHT22;4472;52.092;9.820;2023-08-07T00:33:06;15.60;99.90
8872;DHT22;4472;52.092;9.820;2023-08-07T00:35:53;15.70;99.90
8872;DHT22;4472;52.092;9.820;2023-08-07T00:38:42;15.80;99.90
8872;DHT22;4472;52.092;9.820;2023-08-07T00:41:29;15.70;99.90
8872;DHT22;4472;52.092;9.820;2023-08-07T00:44:16;15.80;99.90
8872;DHT22;4472;52.092;9.820;2023-08-07T00:47:04;15.70;99.90
8872;DHT22;4472;52.092;9.820;2023-08-07T00:49:52;15.70;99.90
8872;DHT22;4472;52.092;9.820;2023-08-07T00:52:39;15.80;99.90
8872;DHT22;4472;52.092;9.820;2023-08-07T00:55:28;15.60;99.90
8872;DHT22;4472;52.092;9.820;2023-08-07T00:58:15;15.60;99.90
8872;DHT22;4472;52.092;9.820;2023-08-07T01:06:38;15.50;99.90
8872;DHT22;4472;52.092;9.820;2023-08-07T01:12:18;15.50;99.90
8872;DHT22;4472;52.092;9.820;2023-08-07T01:15:12;15.50;99.90
8872;DHT22;4472;52.092;9.820;2023-08-07T01:18:00;15.50;99.90
8872;DHT22;4472;52.092;9.820;2023-08-07T01:20:47;15.50;99.90
8872;DHT22;4472;52.092;9.820;2023-08-07T01:23:36;15.60;99.90
8872;DHT22;4472;52.092;9.820;2023-08-07T01:26:23;15.50;99.90
8872;DHT22;4472;52.092;9.820;2023-08-07T01:29:15;15.60;99.90
8872;DHT22;4472;52.092;9.820;2023-08-07T01:32:06;15.50;99.90
8872;DHT22;4472;52.092;9.820;2023-08-07T01:34:56;15.40;99.90
8872;DHT22;4472;52.092;9.820;2023-08-07T01:37:45;15.40;99.90
8872;DHT22;4472;52.092;9.820;2023-08-07T01:40:35;15.50;99.90
8872;DHT22;4472;52.092;9.820;2023-08-07T01:43:24;15.50;99.90
8872;DHT22;4472;52.092;9.820;2023-08-07T01:46:11;15.30;99.90
8872;DHT22;4472;52.092;9.820;2023-08-07T01:48:59;15.30;99.90
8872;DHT22;4472;52.092;9.820;2023-08-07T01:51:46;15.30;99.90
8872;DHT22;4472;52.092;9.820;2023-08-07T01:54:33;15.30;99.90
8872;DHT22;4472;52.092;9.820;2023-08-07T01:57:22;15.40;99.90
8872;DHT22;4472;52.092;9.820;2023-08-07T02:00:09;15.30;99.90
8872;DHT22;4472;52.092;9.820;2023-08-07T02:02:57;15.20;99.90
8872;DHT22;4472;52.092;9.820;2023-08-07T02:05:45;15.30;99.90
8872;DHT22;4472;52.092;9.820;2023-08-07T02:08:32;15.20;99.90
8872;DHT22;4472;52.092;9.820;2023-08-07T02:11:19;15.20;99.90
8872;DHT22;4472;52.092;9.820;2023-08-07T02:14:08;15.20;99.90
8872;DHT22;4472;52.092;9.820;2023-08-07T02:16:55;15.20;99.90
8872;DHT22;4472;52.092;9.820;2023-08-07T02:19:42;15.10;99.90
8872;DHT22;4472;52.092;9.820;2023-08-07T02:22:29;15.00;99.90
8872;DHT22;4472;52.092;9.820;2023-08-07T02:25:17;15.00;99.90
8872;DHT22;4472;52.092;9.820;2023-08-07T02:28:04;15.00;99.90
8872;DHT22;4472;52.092;9.820;2023-08-07T02:30:52;15.10;99.90
8872;DHT22;4472;52.092;9.820;2023-08-07T02:33:40;15.00;99.90
8872;DHT22;4472;52.092;9.820;2023-08-07T02:36:27;15.00;99.90
8872;DHT22;4472;52.092;9.820;2023-08-07T02:39:14;14.90;99.90
8872;DHT22;4472;52.092;9.820;2023-08-07T02:42:01;15.00;99.90
8872;DHT22;4472;52.092;9.820;2023-08-07T02:44:49;14.90;99.90
8872;DHT22;4472;52.092;9.820;2023-08-07T02:47:37;14.80;99.90
8872;DHT22;4472;52.092;9.820;2023-08-07T02:50:24;14.80;99.90
8872;DHT22;4472;52.092;9.820;2023-08-07T02:53:13;14.80;99.90
8872;DHT22;4472;52.092;9.820;2023-08-07T02:56:00;14.90;99.90
8872;DHT22;4472;52.092;9.820;2023-08-07T02:58:47;14.80;99.90
8872;DHT22;4472;52.092;9.820;2023-08-07T03:01:34;14.80;99.90
8872;DHT22;4472;52.092;9.820;2023-08-07T03:04:23;14.90;99.90
8872;DHT22;4472;52.092;9.820;2023-08-07T03:07:10;14.80;99.90
8872;DHT22;4472;52.092;9.820;2023-08-07T03:09:58;14.80;99.90
8872;DHT22;4472;52.092;9.820;2023-08-07T03:12:45;14.80;99.90
8872;DHT22;4472;52.092;9.820;2023-08-07T03:15:32;14.70;99.90
8872;DHT22;4472;52.092;9.820;2023-08-07T03:18:19;14.70;99.90
8872;DHT22;4472;52.092;9.820;2023-08-07T03:21:08;14.90;99.90
8872;DHT22;4472;52.092;9.820;2023-08-07T03:23:55;14.80;99.90
8872;DHT22;4472;52.092;9.820;2023-08-07T03:26:42;14.80;99.90
8872;DHT22;4472;52.092;9.820;2023-08-07T03:29:30;14.80;99.90
8872;DHT22;4472;52.092;9.820;2023-08-07T03:32:17;15.00;99.90
8872;DHT22;4472;52.092;9.820;2023-08-07T03:35:05;14.80;99.90
8872;DHT22;4472;52.092;9.820;2023-08-07T03:37:53;14.80;99.90
8872;DHT22;4472;52.092;9.820;2023-08-07T03:40:41;14.80;99.90
8872;DHT22;4472;52.092;9.820;2023-08-07T03:43:28;14.90;99.90
8872;DHT22;4472;52.092;9.820;2023-08-07T03:46:15;14.10;99.90
8872;DHT22;4472;52.092;9.820;2023-08-07T03:49:02;14.80;99.90
8872;DHT22;4472;52.092;9.820;2023-08-07T03:51:49;14.80;99.90
8872;DHT22;4472;52.092;9.820;2023-08-07T03:54:38;14.80;99.90
8872;DHT22;4472;52.092;9.820;2023-08-07T03:57:25;14.80;99.90
8872;DHT22;4472;52.092;9.820;2023-08-07T04:00:13;14.90;99.90
8872;DHT22;4472;52.092;9.820;2023-08-07T04:03:01;14.80;99.90
8872;DHT22;4472;52.092;9.820;2023-08-07T04:05:52;14.90;99.90
8872;DHT22;4472;52.092;9.820;2023-08-07T04:08:39;14.90;99.90
8872;DHT22;4472;52.092;9.820;2023-08-07T04:11:28;14.90;99.90
8872;DHT22;4472;52.092;9.820;2023-08-07T04:14:15;14.90;99.90
8872;DHT22;4472;52.092;9.820;2023-08-07T04:17:03;15.00;99.90
8872;DHT22;4472;52.092;9.820;2023-08-07T04:19:50;14.90;99.90
8872;DHT22;4472;52.092;9.820;2023-08-07T04:22:37;15.10;99.90
8872;DHT22;4472;52.092;9.820;2023-08-07T04:25:25;15.00;99.90
8872;DHT22;4472;52.092;9.820;2023-08-07T04:28:13;15.00;99.90
8872;DHT22;4472;52.092;9.820;2023-08-07T04:31:00;15.00;99.90
8872;DHT22;4472;52.092;9.820;2023-08-07T04:33:48;15.00;99.90
8872;DHT22;4472;52.092;9.820;2023-08-07T04:36:35;15.10;99.90
8872;DHT22;4472;52.092;9.820;2023-08-07T04:39:22;15.10;99.90
8872;DHT22;4472;52.092;9.820;2023-08-07T04:42:09;15.00;99.90
8872;DHT22;4472;52.092;9.820;2023-08-07T04:44:58;15.00;99.90
8872;DHT22;4472;52.092;9.820;2023-08-07T04:47:45;15.00;99.90
8872;DHT22;4472;52.092;9.820;2023-08-07T04:50:32;15.10;99.90
8872;DHT22;4472;52.092;9.820;2023-08-07T04:53:19;15.00;99.90
8872;DHT22;4472;52.092;9.820;2023-08-07T04:56:06;15.00;99.90
8872;DHT22;4472;52.092;9.820;2023-08-07T04:58:53;15.10;99.90
8872;DHT22;4472;52.092;9.820;2023-08-07T05:01:42;15.10;99.90
8872;DHT22;4472;52.092;9.820;2023-08-07T05:04:29;15.20;99.90
8872;DHT22;4472;52.092;9.820;2023-08-07T05:07:16;15.20;99.90
8872;DHT22;4472;52.092;9.820;2023-08-07T05:10:04;15.10;99.90
8872;DHT22;4472;52.092;9.820;2023-08-07T05:12:51;15.10;99.90
8872;DHT22;4472;52.092;9.820;2023-08-07T05:15:41;15.10;99.90
8872;DHT22;4472;52.092;9.820;2023-08-07T05:18:29;15.00;99.90
8872;DHT22;4472;52.092;9.820;2023-08-07T05:21:16;15.00;99.90
8872;DHT22;4472;52.092;9.820;2023-08-07T05:24:04;15.10;99.90
8872;DHT22;4472;52.092;9.820;2023-08-07T05:26:51;15.10;99.90
8872;DHT22;4472;52.092;9.820;2023-08-07T05:29:38;15.10;99.90
8872;DHT22;4472;52.092;9.820;2023-08-07T05:32:30;15.00;99.90
8872;DHT22;4472;52.092;9.820;2023-08-07T05:35:19;15.00;99.90
8872;DHT22;4472;52.092;9.820;2023-08-07T05:38:06;15.10;99.90
8872;DHT22;4472;52.092;9.820;2023-08-07T05:40:54;15.20;99.90
8872;DHT22;4472;52.092;9.820;2023-08-07T05:43:41;15.10;99.90
8872;DHT22;4472;52.092;9.820;2023-08-07T05:46:28;15.20;99.90
8872;DHT22;4472;52.092;9.820;2023-08-07T05:49:15;15.20;99.90
8872;DHT22;4472;52.092;9.820;2023-08-07T05:52:05;15.30;99.90
8872;DHT22;4472;52.092;9.820;2023-08-07T05:54:52;15.10;99.90
8872;DHT22;4472;52.092;9.820;2023-08-07T05:57:39;15.30;99.90
8872;DHT22;4472;52.092;9.820;2023-08-07T06:00:27;15.30;99.90
8872;DHT22;4472;52.092;9.820;2023-08-07T06:03:14;15.40;99.90
8872;DHT22;4472;52.092;9.820;2023-08-07T06:06:01;15.50;99.90
8872;DHT22;4472;52.092;9.820;2023-08-07T06:08:49;15.60;99.90
8872;DHT22;4472;52.092;9.820;2023-08-07T06:11:37;15.50;99.90
8872;DHT22;4472;52.092;9.820;2023-08-07T06:14:24;15.60;99.90
8872;DHT22;4472;52.092;9.820;2023-08-07T06:17:12;15.60;99.90
8872;DHT22;4472;52.092;9.820;2023-08-07T06:19:59;15.70;99.90
8872;DHT22;4472;52.092;9.820;2023-08-07T06:22:46;15.70;99.90
8872;DHT22;4472;52.092;9.820;2023-08-07T06:25:34;15.50;99.90
8872;DHT22;4472;52.092;9.820;2023-08-07T06:28:22;15.50;99.90
8872;DHT22;4472;52.092;9.820;2023-08-07T06:31:10;15.70;99.90
8872;DHT22;4472;52.092;9.820;2023-08-07T06:33:58;15.80;99.90
8872;DHT22;4472;52.092;9.820;2023-08-07T06:36:45;15.70;99.90
8872;DHT22;4472;52.092;9.820;2023-08-07T06:39:33;15.80;99.90
8872;DHT22;4472;52.092;9.820;2023-08-07T06:42:21;15.90;99.90
8872;DHT22;4472;52.092;9.820;2023-08-07T06:45:09;16.10;99.90
8872;DHT22;4472;52.092;9.820;2023-08-07T06:47:56;16.10;99.90
8872;DHT22;4472;52.092;9.820;2023-08-07T06:50:44;16.10;99.90
8872;DHT22;4472;52.092;9.820;2023-08-07T06:53:31;16.20;99.90
8872;DHT22;4472;52.092;9.820;2023-08-07T06:56:21;16.10;99.90
8872;DHT22;4472;52.092;9.820;2023-08-07T06:59:10;16.00;99.90
8872;DHT22;4472;52.092;9.820;2023-08-07T07:01:58;16.40;99.90
8872;DHT22;4472;52.092;9.820;2023-08-07T07:04:45;16.40;99.90
8872;DHT22;4472;52.092;9.820;2023-08-07T07:07:32;16.50;99.90
8872;DHT22;4472;52.092;9.820;2023-08-07T07:10:19;16.50;99.90
8872;DHT22;4472;52.092;9.820;2023-08-07T07:13:07;16.70;99.90
8872;DHT22;4472;52.092;9.820;2023-08-07T07:15:57;16.70;99.90
8872;DHT22;4472;52.092;9.820;2023-08-07T07:18:44;16.70;99.90
8872;DHT22;4472;52.092;9.820;2023-08-07T07:21:32;16.60;99.90
8872;DHT22;4472;52.092;9.820;2023-08-07T07:24:19;16.50;99.90
8872;DHT22;4472;52.092;9.820;2023-08-07T07:27:07;16.50;99.90
8872;DHT22;4472;52.092;9.820;2023-08-07T07:29:54;16.60;99.90
8872;DHT22;4472;52.092;9.820;2023-08-07T07:32:42;16.50;99.90
8872;DHT22;4472;52.092;9.820;2023-08-07T07:35:30;16.80;99.90
8872;DHT22;4472;52.092;9.820;2023-08-07T07:38:17;16.60;99.90
8872;DHT22;4472;52.092;9.820;2023-08-07T07:41:04;16.90;99.90
8872;DHT22;4472;52.092;9.820;2023-08-07T07:43:55;16.60;99.90
8872;DHT22;4472;52.092;9.820;2023-08-07T07:46:43;16.80;99.90
8872;DHT22;4472;52.092;9.820;2023-08-07T07:49:32;16.90;99.90
8872;DHT22;4472;52.092;9.820;2023-08-07T07:52:20;16.90;99.90
8872;DHT22;4472;52.092;9.820;2023-08-07T07:55:07;17.00;99.90
8872;DHT22;4472;52.092;9.820;2023-08-07T07:57:55;17.00;99.90
8872;DHT22;4472;52.092;9.820;2023-08-07T08:00:42;17.00;99.90
8872;DHT22;4472;52.092;9.820;2023-08-07T08:03:29;16.80;99.90
8872;DHT22;4472;52.092;9.820;2023-08-07T08:06:18;16.80;99.90
8872;DHT22;4472;52.092;9.820;2023-08-07T08:09:05;16.80;99.90
8872;DHT22;4472;52.092;9.820;2023-08-07T08:11:55;16.90;99.90
8872;DHT22;4472;52.092;9.820;2023-08-07T08:14:42;16.90;99.90
8872;DHT22;4472;52.092;9.820;2023-08-07T08:17:29;16.70;99.90
8872;DHT22;4472;52.092;9.820;2023-08-07T08:20:17;16.50;99.90
8872;DHT22;4472;52.092;9.820;2023-08-07T08:23:06;16.60;99.90
8872;DHT22;4472;52.092;9.820;2023-08-07T08:25:53;16.70;99.90
8872;DHT22;4472;52.092;9.820;2023-08-07T08:28:40;16.80;99.90
8872;DHT22;4472;52.092;9.820;2023-08-07T08:31:28;16.50;99.90
8872;DHT22;4472;52.092;9.820;2023-08-07T08:34:15;16.50;99.90
8872;DHT22;4472;52.092;9.820;2023-08-07T08:37:03;16.30;99.90
8872;DHT22;4472;52.092;9.820;2023-08-07T08:39:53;16.30;99.90
8872;DHT22;4472;52.092;9.820;2023-08-07T08:42:40;16.30;99.90
8872;DHT22;4472;52.092;9.820;2023-08-07T08:45:28;16.50;99.90
8872;DHT22;4472;52.092;9.820;2023-08-07T08:48:20;16.50;99.90
8872;DHT22;4472;52.092;9.820;2023-08-07T08:51:09;16.60;99.90
8872;DHT22;4472;52.092;9.820;2023-08-07T08:53:57;16.60;99.90
8872;DHT22;4472;52.092;9.820;2023-08-07T09:02:21;16.60;99.90
8872;DHT22;4472;52.092;9.820;2023-08-07T09:05:08;16.70;99.90
8872;DHT22;4472;52.092;9.820;2023-08-07T09:07:56;16.70;99.90
8872;DHT22;4472;52.092;9.820;2023-08-07T09:10:45;16.50;99.90
8872;DHT22;4472;52.092;9.820;2023-08-07T09:13:34;16.50;99.90
8872;DHT22;4472;52.092;9.820;2023-08-07T09:16:23;16.40;99.90
8872;DHT22;4472;52.092;9.820;2023-08-07T09:19:11;16.50;99.90
8872;DHT22;4472;52.092;9.820;2023-08-07T09:21:58;16.60;99.90
8872;DHT22;4472;52.092;9.820;2023-08-07T09:24:46;16.80;99.90
8872;DHT22;4472;52.092;9.820;2023-08-07T09:27:33;16.80;99.90
8872;DHT22;4472;52.092;9.820;2023-08-07T09:30:26;17.00;99.90
8872;DHT22;4472;52.092;9.820;2023-08-07T09:33:14;17.00;99.90
8872;DHT22;4472;52.092;9.820;2023-08-07T09:36:01;17.00;99.90
8872;DHT22;4472;52.092;9.820;2023-08-07T09:38:51;16.90;99.90
8872;DHT22;4472;52.092;9.820;2023-08-07T09:41:38;16.70;99.90
8872;DHT22;4472;52.092;9.820;2023-08-07T09:53:02;16.20;99.90
8872;DHT22;4472;52.092;9.820;2023-08-07T09:55:52;16.40;99.90
8872;DHT22;4472;52.092;9.820;2023-08-07T09:58:46;16.50;99.90
8872;DHT22;4472;52.092;9.820;2023-08-07T10:01:36;16.80;99.90
8872;DHT22;4472;52.092;9.820;2023-08-07T10:04:25;16.90;99.90
8872;DHT22;4472;52.092;9.820;2023-08-07T10:07:14;17.20;99.90
8872;DHT22;4472;52.092;9.820;2023-08-07T10:10:02;17.40;99.90
8872;DHT22;4472;52.092;9.820;2023-08-07T10:32:28;17.80;99.90
8872;DHT22;4472;52.092;9.820;2023-08-07T10:35:23;17.60;99.90
8872;DHT22;4472;52.092;9.820;2023-08-07T10:38:12;17.50;99.90
8872;DHT22;4472;52.092;9.820;2023-08-07T10:41:01;17.40;99.90
8872;DHT22;4472;52.092;9.820;2023-08-07T10:52:28;17.30;99.90
8872;DHT22;4472;52.092;9.820;2023-08-07T11:04:05;16.90;99.90
8872;DHT22;4472;52.092;9.820;2023-08-07T11:06:52;16.70;99.90
8872;DHT22;4472;52.092;9.820;2023-08-07T11:09:39;16.60;99.90
8872;DHT22;4472;52.092;9.820;2023-08-07T11:12:28;16.50;99.90
8872;DHT22;4472;52.092;9.820;2023-08-07T11:15:16;16.40;99.90
8872;DHT22;4472;52.092;9.820;2023-08-07T11:18:03;16.40;99.90
8872;DHT22;4472;52.092;9.820;2023-08-07T11:20:51;16.30;99.90
8872;DHT22;4472;52.092;9.820;2023-08-07T11:23:39;16.40;99.90
8872;DHT22;4472;52.092;9.820;2023-08-07T11:26:26;16.60;99.90
8872;DHT22;4472;52.092;9.820;2023-08-07T11:29:17;16.70;99.90
8872;DHT22;4472;52.092;9.820;2023-08-07T11:32:05;17.00;99.90
8872;DHT22;4472;52.092;9.820;2023-08-07T11:34:52;17.30;99.90
8872;DHT22;4472;52.092;9.820;2023-08-07T11:37:45;17.60;99.90
8872;DHT22;4472;52.092;9.820;2023-08-07T11:40:33;17.80;99.90
8872;DHT22;4472;52.092;9.820;2023-08-07T11:43:20;17.70;99.90
8872;DHT22;4472;52.092;9.820;2023-08-07T11:46:10;17.70;99.90
8872;DHT22;4472;52.092;9.820;2023-08-07T11:48:57;17.70;99.90
8872;DHT22;4472;52.092;9.820;2023-08-07T11:51:45;17.80;99.90
8872;DHT22;4472;52.092;9.820;2023-08-07T11:54:33;18.10;99.90
8872;DHT22;4472;52.092;9.820;2023-08-07T11:57:20;18.30;99.90
8872;DHT22;4472;52.092;9.820;2023-08-07T12:00:09;18.30;99.90
8872;DHT22;4472;52.092;9.820;2023-08-07T12:03:00;18.30;99.90
8872;DHT22;4472;52.092;9.820;2023-08-07T12:05:48;18.10;99.90
8872;DHT22;4472;52.092;9.820;2023-08-07T12:08:37;17.80;99.90
8872;DHT22;4472;52.092;9.820;2023-08-07T12:11:24;17.50;99.90
8872;DHT22;4472;52.092;9.820;2023-08-07T12:14:14;17.00;99.90
8872;DHT22;4472;52.092;9.820;2023-08-07T12:17:03;16.70;99.90
8872;DHT22;4472;52.092;9.820;2023-08-07T12:19:52;16.50;99.90
8872;DHT22;4472;52.092;9.820;2023-08-07T12:22:42;16.40;99.90
8872;DHT22;4472;52.092;9.820;2023-08-07T12:25:31;16.50;99.90
8872;DHT22;4472;52.092;9.820;2023-08-07T12:28:18;17.00;99.90
8872;DHT22;4472;52.092;9.820;2023-08-07T12:31:06;16.70;99.90
8872;DHT22;4472;52.092;9.820;2023-08-07T12:33:53;16.90;99.90
8872;DHT22;4472;52.092;9.820;2023-08-07T12:36:51;17.00;99.90
8872;DHT22;4472;52.092;9.820;2023-08-07T12:39:38;17.30;99.90
8872;DHT22;4472;52.092;9.820;2023-08-07T12:42:26;17.30;99.90
8872;DHT22;4472;52.092;9.820;2023-08-07T12:45:13;16.80;99.90
8872;DHT22;4472;52.092;9.820;2023-08-07T12:48:02;17.60;99.90
8872;DHT22;4472;52.092;9.820;2023-08-07T12:50:50;17.70;99.90
8872;DHT22;4472;52.092;9.820;2023-08-07T12:53:41;17.70;99.90
8872;DHT22;4472;52.092;9.820;2023-08-07T12:56:28;17.80;99.90
8872;DHT22;4472;52.092;9.820;2023-08-07T12:59:16;18.10;99.90
8872;DHT22;4472;52.092;9.820;2023-08-07T13:02:03;18.30;99.90
8872;DHT22;4472;52.092;9.820;2023-08-07T13:04:51;18.40;99.90
8872;DHT22;4472;52.092;9.820;2023-08-07T13:07:39;18.60;99.90
8872;DHT22;4472;52.092;9.820;2023-08-07T13:10:28;18.20;99.90
8872;DHT22;4472;52.092;9.820;2023-08-07T13:13:17;18.00;99.90
8872;DHT22;4472;52.092;9.820;2023-08-07T13:16:04;17.80;99.90
8872;DHT22;4472;52.092;9.820;2023-08-07T13:18:51;17.50;99.90
8872;DHT22;4472;52.092;9.820;2023-08-07T13:21:38;17.30;99.90
8872;DHT22;4472;52.092;9.820;2023-08-07T13:24:25;17.10;99.90
8872;DHT22;4472;52.092;9.820;2023-08-07T13:27:14;16.90;99.90
8872;DHT22;4472;52.092;9.820;2023-08-07T13:30:01;16.60;99.90
8872;DHT22;4472;52.092;9.820;2023-08-07T13:32:48;16.40;99.90
8872;DHT22;4472;52.092;9.820;2023-08-07T13:35:35;16.30;99.90
8872;DHT22;4472;52.092;9.820;2023-08-07T13:38:23;16.30;99.90
8872;DHT22;4472;52.092;9.820;2023-08-07T13:41:10;16.50;99.90
8872;DHT22;4472;52.092;9.820;2023-08-07T13:55:09;16.80;99.90
8872;DHT22;4472;52.092;9.820;2023-08-07T13:57:57;17.00;99.90
8872;DHT22;4472;52.092;9.820;2023-08-07T14:00:45;17.30;99.90
8872;DHT22;4472;52.092;9.820;2023-08-07T14:09:09;18.00;99.90
8872;DHT22;4472;52.092;9.820;2023-08-07T14:11:56;18.20;99.90
8872;DHT22;4472;52.092;9.820;2023-08-07T14:14:43;18.40;99.90
8872;DHT22;4472;52.092;9.820;2023-08-07T14:17:32;18.60;99.90
8872;DHT22;4472;52.092;9.820;2023-08-07T14:20:20;18.70;99.90
8872;DHT22;4472;52.092;9.820;2023-08-07T14:23:08;19.00;99.90
8872;DHT22;4472;52.092;9.820;2023-08-07T14:25:55;18.90;99.90
8872;DHT22;4472;52.092;9.820;2023-08-07T14:28:42;18.90;99.90
8872;DHT22;4472;52.092;9.820;2023-08-07T14:31:29;18.60;99.90
8872;DHT22;4472;52.092;9.820;2023-08-07T14:34:18;18.40;99.90
8872;DHT22;4472;52.092;9.820;2023-08-07T14:37:05;18.40;99.90
8872;DHT22;4472;52.092;9.820;2023-08-07T14:39:52;18.40;99.90
8872;DHT22;4472;52.092;9.820;2023-08-07T14:42:39;18.50;99.90
8872;DHT22;4472;52.092;9.820;2023-08-07T14:45:27;18.50;99.90
8872;DHT22;4472;52.092;9.820;2023-08-07T14:48:15;18.50;99.90
8872;DHT22;4472;52.092;9.820;2023-08-07T14:51:03;18.60;99.90
8872;DHT22;4472;52.092;9.820;2023-08-07T14:53:51;18.60;99.90
8872;DHT22;4472;52.092;9.820;2023-08-07T14:56:39;18.80;99.90
8872;DHT22;4472;52.092;9.820;2023-08-07T14:59:26;18.90;99.90
8872;DHT22;4472;52.092;9.820;2023-08-07T15:02:14;18.90;99.90
8872;DHT22;4472;52.092;9.820;2023-08-07T15:05:01;18.90;99.90
8872;DHT22;4472;52.092;9.820;2023-08-07T15:07:50;18.90;99.90
8872;DHT22;4472;52.092;9.820;2023-08-07T15:10:37;18.70;99.90
8872;DHT22;4472;52.092;9.820;2023-08-07T15:13:25;18.60;99.90
8872;DHT22;4472;52.092;9.820;2023-08-07T15:16:12;18.80;99.90
8872;DHT22;4472;52.092;9.820;2023-08-07T15:19:00;18.90;99.90
8872;DHT22;4472;52.092;9.820;2023-08-07T15:21:50;19.00;99.90
8872;DHT22;4472;52.092;9.820;2023-08-07T15:24:38;19.10;99.90
8872;DHT22;4472;52.092;9.820;2023-08-07T15:27:25;19.10;99.90
8872;DHT22;4472;52.092;9.820;2023-08-07T15:30:13;19.20;99.90
8872;DHT22;4472;52.092;9.820;2023-08-07T15:33:00;19.30;99.90
8872;DHT22;4472;52.092;9.820;2023-08-07T15:35:47;19.30;99.90
8872;DHT22;4472;52.092;9.820;2023-08-07T15:38:37;19.10;99.90
8872;DHT22;4472;52.092;9.820;2023-08-07T15:41:26;18.80;99.90
8872;DHT22;4472;52.092;9.820;2023-08-07T15:44:13;18.50;99.90
8872;DHT22;4472;52.092;9.820;2023-08-07T15:47:00;18.30;99.90
8872;DHT22;4472;52.092;9.820;2023-08-07T15:49:48;18.20;99.90
8872;DHT22;4472;52.092;9.820;2023-08-07T15:52:35;18.20;99.90
8872;DHT22;4472;52.092;9.820;2023-08-07T15:55:22;18.10;99.90
8872;DHT22;4472;52.092;9.820;2023-08-07T15:58:11;17.90;99.90
8872;DHT22;4472;52.092;9.820;2023-08-07T16:00:58;17.80;99.90
8872;DHT22;4472;52.092;9.820;2023-08-07T16:03:45;17.60;99.90
8872;DHT22;4472;52.092;9.820;2023-08-07T16:06:32;17.40;99.90
8872;DHT22;4472;52.092;9.820;2023-08-07T16:09:19;17.50;99.90
8872;DHT22;4472;52.092;9.820;2023-08-07T16:12:07;17.60;99.90
8872;DHT22;4472;52.092;9.820;2023-08-07T16:14:55;17.80;99.90
8872;DHT22;4472;52.092;9.820;2023-08-07T16:17:46;17.80;99.90
8872;DHT22;4472;52.092;9.820;2023-08-07T16:23:20;17.70;99.90
8872;DHT22;4472;52.092;9.820;2023-08-07T16:26:08;17.60;99.90
8872;DHT22;4472;52.092;9.820;2023-08-07T16:28:55;17.50;99.90
8872;DHT22;4472;52.092;9.820;2023-08-07T16:31:44;17.70;99.90
8872;DHT22;4472;52.092;9.820;2023-08-07T16:34:31;17.70;99.90
8872;DHT22;4472;52.092;9.820;2023-08-07T16:37:18;17.80;99.90
8872;DHT22;4472;52.092;9.820;2023-08-07T16:40:08;17.80;99.90
8872;DHT22;4472;52.092;9.820;2023-08-07T16:42:56;17.70;99.90
8872;DHT22;4472;52.092;9.820;2023-08-07T16:45:43;17.70;99.90
8872;DHT22;4472;52.092;9.820;2023-08-07T16:48:31;17.60;99.90
8872;DHT22;4472;52.092;9.820;2023-08-07T16:51:19;17.30;99.90
8872;DHT22;4472;52.092;9.820;2023-08-07T16:54:06;17.20;99.90
8872;DHT22;4472;52.092;9.820;2023-08-07T16:56:54;17.20;99.90
8872;DHT22;4472;52.092;9.820;2023-08-07T16:59:41;16.90;99.90
8872;DHT22;4472;52.092;9.820;2023-08-07T17:02:29;16.50;99.90
8872;DHT22;4472;52.092;9.820;2023-08-07T17:05:20;16.60;99.90
8872;DHT22;4472;52.092;9.820;2023-08-07T17:08:08;16.70;99.90
8872;DHT22;4472;52.092;9.820;2023-08-07T17:19:17;16.80;99.90
8872;DHT22;4472;52.092;9.820;2023-08-07T17:22:08;16.90;99.90
8872;DHT22;4472;52.092;9.820;2023-08-07T17:24:55;16.90;99.90
8872;DHT22;4472;52.092;9.820;2023-08-07T17:27:42;16.90;99.90
8872;DHT22;4472;52.092;9.820;2023-08-07T17:30:29;16.80;99.90
8872;DHT22;4472;52.092;9.820;2023-08-07T17:33:16;16.60;99.90
8872;DHT22;4472;52.092;9.820;2023-08-07T17:36:04;16.60;99.90
8872;DHT22;4472;52.092;9.820;2023-08-07T17:38:53;16.40;99.90
8872;DHT22;4472;52.092;9.820;2023-08-07T17:41:41;16.30;99.90
8872;DHT22;4472;52.092;9.820;2023-08-07T17:47:18;16.00;99.90
8872;DHT22;4472;52.092;9.820;2023-08-07T17:55:43;15.90;99.90
8872;DHT22;4472;52.092;9.820;2023-08-07T17:58:31;16.00;99.90
8872;DHT22;4472;52.092;9.820;2023-08-07T18:01:18;16.00;99.90
8872;DHT22;4472;52.092;9.820;2023-08-07T18:04:05;16.00;99.90
8872;DHT22;4472;52.092;9.820;2023-08-07T18:06:52;15.90;99.90
8872;DHT22;4472;52.092;9.820;2023-08-07T18:09:39;15.90;99.90
8872;DHT22;4472;52.092;9.820;2023-08-07T18:12:28;15.90;99.90
8872;DHT22;4472;52.092;9.820;2023-08-07T18:15:15;15.90;99.90
8872;DHT22;4472;52.092;9.820;2023-08-07T18:37:38;15.40;99.90
8872;DHT22;4472;52.092;9.820;2023-08-07T18:40:25;15.70;99.90
8872;DHT22;4472;52.092;9.820;2023-08-07T18:43:12;15.40;99.90
8872;DHT22;4472;52.092;9.820;2023-08-07T18:46:01;15.40;99.90
8872;DHT22;4472;52.092;9.820;2023-08-07T18:48:48;15.30;99.90
8872;DHT22;4472;52.092;9.820;2023-08-07T18:51:36;15.20;99.90
8872;DHT22;4472;52.092;9.820;2023-08-07T18:54:23;15.20;99.90
8872;DHT22;4472;52.092;9.820;2023-08-07T18:57:10;15.10;99.90
8872;DHT22;4472;52.092;9.820;2023-08-07T18:59:58;15.20;99.90
8872;DHT22;4472;52.092;9.820;2023-08-07T19:02:46;15.00;99.90
8872;DHT22;4472;52.092;9.820;2023-08-07T19:05:34;15.00;99.90
8872;DHT22;4472;52.092;9.820;2023-08-07T19:08:21;15.10;99.90
8872;DHT22;4472;52.092;9.820;2023-08-07T19:11:08;14.90;99.90
8872;DHT22;4472;52.092;9.820;2023-08-07T19:13:55;14.90;99.90
8872;DHT22;4472;52.092;9.820;2023-08-07T19:16:42;14.90;99.90
8872;DHT22;4472;52.092;9.820;2023-08-07T19:19:32;14.90;99.90
8872;DHT22;4472;52.092;9.820;2023-08-07T19:22:19;14.70;99.90
8872;DHT22;4472;52.092;9.820;2023-08-07T19:25:07;14.70;99.90
8872;DHT22;4472;52.092;9.820;2023-08-07T19:27:54;14.70;99.90
8872;DHT22;4472;52.092;9.820;2023-08-07T19:30:41;14.60;99.90
8872;DHT22;4472;52.092;9.820;2023-08-07T19:33:29;14.60;99.90
8872;DHT22;4472;52.092;9.820;2023-08-07T19:36:29;14.60;99.90
8872;DHT22;4472;52.092;9.820;2023-08-07T19:39:16;14.70;99.90
8872;DHT22;4472;52.092;9.820;2023-08-07T19:42:05;14.50;99.90
8872;DHT22;4472;52.092;9.820;2023-08-07T19:44:52;14.40;99.90
8872;DHT22;4472;52.092;9.820;2023-08-07T19:47:39;14.50;99.90
8872;DHT22;4472;52.092;9.820;2023-08-07T19:50:27;14.40;99.90
8872;DHT22;4472;52.092;9.820;2023-08-07T19:53:15;14.40;99.90
8872;DHT22;4472;52.092;9.820;2023-08-07T19:56:02;14.40;99.90
8872;DHT22;4472;52.092;9.820;2023-08-07T19:58:49;14.40;99.90
8872;DHT22;4472;52.092;9.820;2023-08-07T20:01:36;14.40;99.90
8872;DHT22;4472;52.092;9.820;2023-08-07T20:04:23;14.60;99.90
8872;DHT22;4472;52.092;9.820;2023-08-07T20:07:11;14.50;99.90
8872;DHT22;4472;52.092;9.820;2023-08-07T20:09:59;14.50;99.90
8872;DHT22;4472;52.092;9.820;2023-08-07T20:15:34;14.30;99.90
8872;DHT22;4472;52.092;9.820;2023-08-07T20:23:58;14.30;99.90
8872;DHT22;4472;52.092;9.820;2023-08-07T20:26:47;14.30;99.90